sensor_id;sensor_type;location;lat;lon;timestamp;P1;P2;P0
70922;PMS5003;58573;28.942;-13.688;2023-03-13T00:01:21;31;29;
70922;PMS5003;58573;28.942;-13.688;2023-03-13T00:03:45;40;32;
70922;PMS5003;58573;28.942;-13.688;2023-03-13T00:06:11;34;32;
70922;PMS5003;58573;28.942;-13.688;2023-03-13T00:08:36;24;24;
70922;PMS5003;58573;28.942;-13.688;2023-03-13T00:11:01;35;32;
70922;PMS5003;58573;28.942;-13.688;2023-03-13T00:13:27;28;27;
70922;PMS5003;58573;28.942;-13.688;2023-03-13T00:18:18;25;23;
70922;PMS5003;58573;28.942;-13.688;2023-03-13T00:20:43;29;27;
70922;PMS5003;58573;28.942;-13.688;2023-03-13T00:23:08;37;32;
70922;PMS5003;58573;28.942;-13.688;2023-03-13T00:25:34;35;32;
70922;PMS5003;58573;28.942;-13.688;2023-03-13T00:27:59;34;32;
70922;PMS5003;58573;28.942;-13.688;2023-03-13T00:30:25;35;33;
70922;PMS5003;58573;28.942;-13.688;2023-03-13T00:32:50;40;36;
70922;PMS5003;58573;28.942;-13.688;2023-03-13T00:35:16;32;30;
70922;PMS5003;58573;28.942;-13.688;2023-03-13T00:37:41;46;40;
70922;PMS5003;58573;28.942;-13.688;2023-03-13T00:40:07;39;35;
70922;PMS5003;58573;28.942;-13.688;2023-03-13T00:42:32;40;39;
70922;PMS5003;58573;28.942;-13.688;2023-03-13T00:44:57;38;34;
70922;PMS5003;58573;28.942;-13.688;2023-03-13T00:47:23;38;37;
70922;PMS5003;58573;28.942;-13.688;2023-03-13T00:49:48;41;34;
70922;PMS5003;58573;28.942;-13.688;2023-03-13T00:52:14;35;33;
70922;PMS5003;58573;28.942;-13.688;2023-03-13T00:54:39;40;40;
70922;PMS5003;58573;28.942;-13.688;2023-03-13T00:57:04;34;32;
70922;PMS5003;58573;28.942;-13.688;2023-03-13T00:59:29;36;34;
70922;PMS5003;58573;28.942;-13.688;2023-03-13T01:01:55;38;36;
70922;PMS5003;58573;28.942;-13.688;2023-03-13T01:04:20;30;28;
70922;PMS5003;58573;28.942;-13.688;2023-03-13T01:06:46;27;26;
70922;PMS5003;58573;28.942;-13.688;2023-03-13T01:09:11;26;23;
70922;PMS5003;58573;28.942;-13.688;2023-03-13T01:11:37;21;20;
70922;PMS5003;58573;28.942;-13.688;2023-03-13T01:14:03;25;22;
70922;PMS5003;58573;28.942;-13.688;2023-03-13T01:16:29;30;29;
70922;PMS5003;58573;28.942;-13.688;2023-03-13T01:18:54;24;23;
70922;PMS5003;58573;28.942;-13.688;2023-03-13T01:21:20;26;25;
70922;PMS5003;58573;28.942;-13.688;2023-03-13T01:23:45;30;30;
70922;PMS5003;58573;28.942;-13.688;2023-03-13T01:26:10;42;37;
70922;PMS5003;58573;28.942;-13.688;2023-03-13T01:28:35;30;27;
70922;PMS5003;58573;28.942;-13.688;2023-03-13T01:33:26;43;39;
70922;PMS5003;58573;28.942;-13.688;2023-03-13T01:35:51;32;32;
70922;PMS5003;58573;28.942;-13.688;2023-03-13T01:38:17;36;32;
70922;PMS5003;58573;28.942;-13.688;2023-03-13T01:40:43;43;36;
70922;PMS5003;58573;28.942;-13.688;2023-03-13T01:43:14;34;30;
70922;PMS5003;58573;28.942;-13.688;2023-03-13T01:47:59;43;41;
70922;PMS5003;58573;28.942;-13.688;2023-03-13T01:50:24;41;40;
70922;PMS5003;58573;28.942;-13.688;2023-03-13T01:52:49;43;38;
70922;PMS5003;58573;28.942;-13.688;2023-03-13T01:55:15;36;34;
70922;PMS5003;58573;28.942;-13.688;2023-03-13T01:57:41;36;33;
70922;PMS5003;58573;28.942;-13.688;2023-03-13T02:00:07;35;34;
70922;PMS5003;58573;28.942;-13.688;2023-03-13T02:02:32;39;36;
70922;PMS5003;58573;28.942;-13.688;2023-03-13T02:04:58;38;35;
70922;PMS5003;58573;28.942;-13.688;2023-03-13T02:07:23;30;29;
70922;PMS5003;58573;28.942;-13.688;2023-03-13T02:09:48;37;37;
70922;PMS5003;58573;28.942;-13.688;2023-03-13T02:12:14;41;38;
70922;PMS5003;58573;28.942;-13.688;2023-03-13T02:14:40;34;30;
70922;PMS5003;58573;28.942;-13.688;2023-03-13T02:17:04;33;31;
70922;PMS5003;58573;28.942;-13.688;2023-03-13T02:19:32;32;30;
70922;PMS5003;58573;28.942;-13.688;2023-03-13T02:21:59;41;33;
70922;PMS5003;58573;28.942;-13.688;2023-03-13T02:24:24;38;36;
70922;PMS5003;58573;28.942;-13.688;2023-03-13T02:26:47;39;37;
70922;PMS5003;58573;28.942;-13.688;2023-03-13T02:29:12;39;37;
70922;PMS5003;58573;28.942;-13.688;2023-03-13T02:31:38;32;29;
70922;PMS5003;58573;28.942;-13.688;2023-03-13T02:34:03;22;21;
70922;PMS5003;58573;28.942;-13.688;2023-03-13T02:36:29;26;25;
70922;PMS5003;58573;28.942;-13.688;2023-03-13T02:38:56;23;22;
70922;PMS5003;58573;28.942;-13.688;2023-03-13T02:41:21;30;27;
70922;PMS5003;58573;28.942;-13.688;2023-03-13T02:43:46;34;30;
70922;PMS5003;58573;28.942;-13.688;2023-03-13T02:46:12;31;28;
70922;PMS5003;58573;28.942;-13.688;2023-03-13T02:48:37;29;28;
70922;PMS5003;58573;28.942;-13.688;2023-03-13T02:51:03;20;20;
70922;PMS5003;58573;28.942;-13.688;2023-03-13T02:53:27;15;15;
70922;PMS5003;58573;28.942;-13.688;2023-03-13T02:55:53;31;28;
70922;PMS5003;58573;28.942;-13.688;2023-03-13T02:58:18;30;30;
70922;PMS5003;58573;28.942;-13.688;2023-03-13T03:00:43;25;23;
70922;PMS5003;58573;28.942;-13.688;2023-03-13T03:03:08;24;22;
70922;PMS5003;58573;28.942;-13.688;2023-03-13T03:05:33;19;17;
70922;PMS5003;58573;28.942;-13.688;2023-03-13T03:07:59;19;18;
70922;PMS5003;58573;28.942;-13.688;2023-03-13T03:10:24;19;19;
70922;PMS5003;58573;28.942;-13.688;2023-03-13T03:12:49;19;16;
70922;PMS5003;58573;28.942;-13.688;2023-03-13T03:15:14;22;20;
70922;PMS5003;58573;28.942;-13.688;2023-03-13T03:17:39;24;23;
70922;PMS5003;58573;28.942;-13.688;2023-03-13T03:20:05;31;30;
70922;PMS5003;58573;28.942;-13.688;2023-03-13T03:22:30;33;31;
70922;PMS5003;58573;28.942;-13.688;2023-03-13T03:24:55;41;31;
70922;PMS5003;58573;28.942;-13.688;2023-03-13T03:27:21;27;26;
70922;PMS5003;58573;28.942;-13.688;2023-03-13T03:29:46;28;27;
70922;PMS5003;58573;28.942;-13.688;2023-03-13T03:32:12;29;27;
70922;PMS5003;58573;28.942;-13.688;2023-03-13T03:34:37;20;19;
70922;PMS5003;58573;28.942;-13.688;2023-03-13T03:37:02;17;17;
70922;PMS5003;58573;28.942;-13.688;2023-03-13T03:39:27;21;20;
70922;PMS5003;58573;28.942;-13.688;2023-03-13T03:41:52;29;27;
70922;PMS5003;58573;28.942;-13.688;2023-03-13T03:44:18;35;33;
70922;PMS5003;58573;28.942;-13.688;2023-03-13T03:46:43;37;35;
70922;PMS5003;58573;28.942;-13.688;2023-03-13T03:49:08;39;35;
70922;PMS5003;58573;28.942;-13.688;2023-03-13T03:51:33;34;30;
70922;PMS5003;58573;28.942;-13.688;2023-03-13T03:53:58;49;45;
70922;PMS5003;58573;28.942;-13.688;2023-03-13T03:56:24;33;31;
70922;PMS5003;58573;28.942;-13.688;2023-03-13T03:58:49;34;32;
70922;PMS5003;58573;28.942;-13.688;2023-03-13T04:01:14;47;44;
70922;PMS5003;58573;28.942;-13.688;2023-03-13T04:03:39;35;33;
70922;PMS5003;58573;28.942;-13.688;2023-03-13T04:06:05;43;38;
70922;PMS5003;58573;28.942;-13.688;2023-03-13T04:08:30;40;39;
70922;PMS5003;58573;28.942;-13.688;2023-03-13T04:10:55;38;35;
70922;PMS5003;58573;28.942;-13.688;2023-03-13T04:13:21;34;32;
70922;PMS5003;58573;28.942;-13.688;2023-03-13T04:15:46;25;24;
70922;PMS5003;58573;28.942;-13.688;2023-03-13T04:18:11;23;22;
70922;PMS5003;58573;28.942;-13.688;2023-03-13T04:20:36;15;14;
70922;PMS5003;58573;28.942;-13.688;2023-03-13T04:23:02;15;15;
70922;PMS5003;58573;28.942;-13.688;2023-03-13T04:25:27;19;17;
70922;PMS5003;58573;28.942;-13.688;2023-03-13T04:27:53;20;17;
70922;PMS5003;58573;28.942;-13.688;2023-03-13T04:30:18;23;22;
70922;PMS5003;58573;28.942;-13.688;2023-03-13T04:32:43;29;28;
70922;PMS5003;58573;28.942;-13.688;2023-03-13T04:35:08;25;25;
70922;PMS5003;58573;28.942;-13.688;2023-03-13T04:37:33;27;23;
70922;PMS5003;58573;28.942;-13.688;2023-03-13T04:39:59;28;27;
70922;PMS5003;58573;28.942;-13.688;2023-03-13T04:42:24;31;27;
70922;PMS5003;58573;28.942;-13.688;2023-03-13T04:44:50;37;36;
70922;PMS5003;58573;28.942;-13.688;2023-03-13T04:47:15;34;32;
70922;PMS5003;58573;28.942;-13.688;2023-03-13T04:49:41;19;18;
70922;PMS5003;58573;28.942;-13.688;2023-03-13T04:52:06;25;24;
70922;PMS5003;58573;28.942;-13.688;2023-03-13T04:54:31;21;20;
70922;PMS5003;58573;28.942;-13.688;2023-03-13T04:56:57;28;27;
70922;PMS5003;58573;28.942;-13.688;2023-03-13T04:59:23;15;14;
70922;PMS5003;58573;28.942;-13.688;2023-03-13T05:01:48;9;9;
70922;PMS5003;58573;28.942;-13.688;2023-03-13T05:04:13;15;15;
70922;PMS5003;58573;28.942;-13.688;2023-03-13T05:06:39;21;21;
70922;PMS5003;58573;28.942;-13.688;2023-03-13T05:09:04;17;17;
70922;PMS5003;58573;28.942;-13.688;2023-03-13T05:11:30;13;11;
70922;PMS5003;58573;28.942;-13.688;2023-03-13T05:13:55;16;16;
70922;PMS5003;58573;28.942;-13.688;2023-03-13T05:16:21;22;21;
70922;PMS5003;58573;28.942;-13.688;2023-03-13T05:18:46;22;20;
70922;PMS5003;58573;28.942;-13.688;2023-03-13T05:21:12;17;17;
70922;PMS5003;58573;28.942;-13.688;2023-03-13T05:23:37;22;21;
70922;PMS5003;58573;28.942;-13.688;2023-03-13T05:26:03;30;28;
70922;PMS5003;58573;28.942;-13.688;2023-03-13T05:28:28;20;20;
70922;PMS5003;58573;28.942;-13.688;2023-03-13T05:30:54;15;14;
70922;PMS5003;58573;28.942;-13.688;2023-03-13T05:33:19;19;18;
70922;PMS5003;58573;28.942;-13.688;2023-03-13T05:35:45;22;21;
70922;PMS5003;58573;28.942;-13.688;2023-03-13T05:38:10;21;18;
70922;PMS5003;58573;28.942;-13.688;2023-03-13T05:40:35;22;21;
70922;PMS5003;58573;28.942;-13.688;2023-03-13T05:43:01;20;19;
70922;PMS5003;58573;28.942;-13.688;2023-03-13T05:45:27;19;18;
70922;PMS5003;58573;28.942;-13.688;2023-03-13T05:47:52;20;18;
70922;PMS5003;58573;28.942;-13.688;2023-03-13T05:50:18;16;14;
70922;PMS5003;58573;28.942;-13.688;2023-03-13T05:52:43;21;20;
70922;PMS5003;58573;28.942;-13.688;2023-03-13T05:55:09;14;14;
70922;PMS5003;58573;28.942;-13.688;2023-03-13T05:57:34;16;16;
70922;PMS5003;58573;28.942;-13.688;2023-03-13T05:59:59;16;15;
70922;PMS5003;58573;28.942;-13.688;2023-03-13T06:02:25;16;15;
70922;PMS5003;58573;28.942;-13.688;2023-03-13T06:04:50;17;15;
70922;PMS5003;58573;28.942;-13.688;2023-03-13T06:07:16;14;11;
70922;PMS5003;58573;28.942;-13.688;2023-03-13T06:09:41;10;10;
70922;PMS5003;58573;28.942;-13.688;2023-03-13T06:12:07;15;15;
70922;PMS5003;58573;28.942;-13.688;2023-03-13T06:14:32;10;9;
70922;PMS5003;58573;28.942;-13.688;2023-03-13T06:16:58;14;13;
70922;PMS5003;58573;28.942;-13.688;2023-03-13T06:19:23;9;9;
70922;PMS5003;58573;28.942;-13.688;2023-03-13T06:21:49;11;11;
70922;PMS5003;58573;28.942;-13.688;2023-03-13T06:24:14;12;12;
70922;PMS5003;58573;28.942;-13.688;2023-03-13T06:26:40;12;10;
70922;PMS5003;58573;28.942;-13.688;2023-03-13T06:29:06;15;12;
70922;PMS5003;58573;28.942;-13.688;2023-03-13T06:31:31;26;26;
70922;PMS5003;58573;28.942;-13.688;2023-03-13T06:33:57;20;19;
70922;PMS5003;58573;28.942;-13.688;2023-03-13T06:36:23;30;28;
70922;PMS5003;58573;28.942;-13.688;2023-03-13T06:38:48;29;27;
70922;PMS5003;58573;28.942;-13.688;2023-03-13T06:41:13;27;25;
70922;PMS5003;58573;28.942;-13.688;2023-03-13T06:43:38;29;29;
70922;PMS5003;58573;28.942;-13.688;2023-03-13T06:46:03;31;29;
70922;PMS5003;58573;28.942;-13.688;2023-03-13T06:48:29;28;26;
70922;PMS5003;58573;28.942;-13.688;2023-03-13T06:50:54;30;26;
70922;PMS5003;58573;28.942;-13.688;2023-03-13T06:53:19;32;29;
70922;PMS5003;58573;28.942;-13.688;2023-03-13T06:55:45;32;31;
70922;PMS5003;58573;28.942;-13.688;2023-03-13T06:58:10;32;32;
70922;PMS5003;58573;28.942;-13.688;2023-03-13T07:00:35;31;30;
70922;PMS5003;58573;28.942;-13.688;2023-03-13T07:03:01;33;32;
70922;PMS5003;58573;28.942;-13.688;2023-03-13T07:05:26;32;31;
70922;PMS5003;58573;28.942;-13.688;2023-03-13T07:07:52;33;33;
70922;PMS5003;58573;28.942;-13.688;2023-03-13T07:10:18;34;33;
70922;PMS5003;58573;28.942;-13.688;2023-03-13T07:12:43;39;35;
70922;PMS5003;58573;28.942;-13.688;2023-03-13T07:15:09;45;43;
70922;PMS5003;58573;28.942;-13.688;2023-03-13T07:17:34;35;34;
70922;PMS5003;58573;28.942;-13.688;2023-03-13T07:20:00;35;33;
70922;PMS5003;58573;28.942;-13.688;2023-03-13T07:22:26;34;33;
70922;PMS5003;58573;28.942;-13.688;2023-03-13T07:24:51;34;33;
70922;PMS5003;58573;28.942;-13.688;2023-03-13T07:27:17;33;31;
70922;PMS5003;58573;28.942;-13.688;2023-03-13T07:29:42;35;31;
70922;PMS5003;58573;28.942;-13.688;2023-03-13T07:32:08;32;32;
70922;PMS5003;58573;28.942;-13.688;2023-03-13T07:34:33;33;32;
70922;PMS5003;58573;28.942;-13.688;2023-03-13T07:36:58;33;32;
70922;PMS5003;58573;28.942;-13.688;2023-03-13T07:39:24;32;30;
70922;PMS5003;58573;28.942;-13.688;2023-03-13T07:41:49;32;31;
70922;PMS5003;58573;28.942;-13.688;2023-03-13T07:44:15;36;34;
70922;PMS5003;58573;28.942;-13.688;2023-03-13T07:46:41;26;26;
70922;PMS5003;58573;28.942;-13.688;2023-03-13T07:49:06;38;34;
70922;PMS5003;58573;28.942;-13.688;2023-03-13T07:51:32;31;29;
70922;PMS5003;58573;28.942;-13.688;2023-03-13T07:53:57;41;38;
70922;PMS5003;58573;28.942;-13.688;2023-03-13T07:56:22;39;35;
70922;PMS5003;58573;28.942;-13.688;2023-03-13T07:58:48;32;30;
70922;PMS5003;58573;28.942;-13.688;2023-03-13T08:01:14;30;29;
70922;PMS5003;58573;28.942;-13.688;2023-03-13T08:03:38;34;31;
70922;PMS5003;58573;28.942;-13.688;2023-03-13T08:06:05;32;30;
70922;PMS5003;58573;28.942;-13.688;2023-03-13T08:08:30;31;29;
70922;PMS5003;58573;28.942;-13.688;2023-03-13T08:10:58;30;29;
70922;PMS5003;58573;28.942;-13.688;2023-03-13T08:13:20;30;25;
70922;PMS5003;58573;28.942;-13.688;2023-03-13T08:15:46;26;25;
70922;PMS5003;58573;28.942;-13.688;2023-03-13T08:18:12;23;22;
70922;PMS5003;58573;28.942;-13.688;2023-03-13T08:20:37;23;21;
70922;PMS5003;58573;28.942;-13.688;2023-03-13T08:23:03;31;30;
70922;PMS5003;58573;28.942;-13.688;2023-03-13T08:25:28;23;22;
70922;PMS5003;58573;28.942;-13.688;2023-03-13T08:27:54;23;22;
70922;PMS5003;58573;28.942;-13.688;2023-03-13T08:30:19;21;20;
70922;PMS5003;58573;28.942;-13.688;2023-03-13T08:32:44;22;21;
70922;PMS5003;58573;28.942;-13.688;2023-03-13T08:35:10;23;21;
70922;PMS5003;58573;28.942;-13.688;2023-03-13T08:37:35;25;24;
70922;PMS5003;58573;28.942;-13.688;2023-03-13T08:40:00;24;22;
70922;PMS5003;58573;28.942;-13.688;2023-03-13T08:42:26;17;17;
70922;PMS5003;58573;28.942;-13.688;2023-03-13T08:44:51;14;14;
70922;PMS5003;58573;28.942;-13.688;2023-03-13T08:47:17;16;16;
70922;PMS5003;58573;28.942;-13.688;2023-03-13T08:49:43;21;20;
70922;PMS5003;58573;28.942;-13.688;2023-03-13T08:52:08;17;16;
70922;PMS5003;58573;28.942;-13.688;2023-03-13T08:54:33;24;21;
70922;PMS5003;58573;28.942;-13.688;2023-03-13T08:56:59;18;17;
70922;PMS5003;58573;28.942;-13.688;2023-03-13T08:59:24;20;18;
70922;PMS5003;58573;28.942;-13.688;2023-03-13T09:01:50;16;16;
70922;PMS5003;58573;28.942;-13.688;2023-03-13T09:04:15;18;18;
70922;PMS5003;58573;28.942;-13.688;2023-03-13T09:06:40;17;16;
70922;PMS5003;58573;28.942;-13.688;2023-03-13T09:09:06;18;17;
70922;PMS5003;58573;28.942;-13.688;2023-03-13T09:11:32;20;18;
70922;PMS5003;58573;28.942;-13.688;2023-03-13T09:13:57;18;16;
70922;PMS5003;58573;28.942;-13.688;2023-03-13T09:16:23;18;16;
70922;PMS5003;58573;28.942;-13.688;2023-03-13T09:18:48;18;16;
70922;PMS5003;58573;28.942;-13.688;2023-03-13T09:21:14;13;13;
70922;PMS5003;58573;28.942;-13.688;2023-03-13T09:23:38;17;17;
70922;PMS5003;58573;28.942;-13.688;2023-03-13T09:26:04;18;15;
70922;PMS5003;58573;28.942;-13.688;2023-03-13T09:28:29;14;14;
70922;PMS5003;58573;28.942;-13.688;2023-03-13T09:30:54;15;15;
70922;PMS5003;58573;28.942;-13.688;2023-03-13T09:33:20;18;16;
70922;PMS5003;58573;28.942;-13.688;2023-03-13T09:35:45;16;16;
70922;PMS5003;58573;28.942;-13.688;2023-03-13T09:38:10;17;16;
70922;PMS5003;58573;28.942;-13.688;2023-03-13T09:40:36;17;15;
70922;PMS5003;58573;28.942;-13.688;2023-03-13T09:43:00;17;17;
70922;PMS5003;58573;28.942;-13.688;2023-03-13T09:45:28;20;20;
70922;PMS5003;58573;28.942;-13.688;2023-03-13T09:47:51;20;19;
70922;PMS5003;58573;28.942;-13.688;2023-03-13T09:50:17;19;18;
70922;PMS5003;58573;28.942;-13.688;2023-03-13T09:52:41;16;15;
70922;PMS5003;58573;28.942;-13.688;2023-03-13T09:55:10;19;19;
70922;PMS5003;58573;28.942;-13.688;2023-03-13T09:57:32;16;15;
70922;PMS5003;58573;28.942;-13.688;2023-03-13T09:59:57;20;16;
70922;PMS5003;58573;28.942;-13.688;2023-03-13T10:02:24;18;17;
70922;PMS5003;58573;28.942;-13.688;2023-03-13T10:04:49;16;14;
70922;PMS5003;58573;28.942;-13.688;2023-03-13T10:07:13;17;15;
70922;PMS5003;58573;28.942;-13.688;2023-03-13T10:09:39;15;15;
70922;PMS5003;58573;28.942;-13.688;2023-03-13T10:12:05;17;16;
70922;PMS5003;58573;28.942;-13.688;2023-03-13T10:14:30;16;15;
70922;PMS5003;58573;28.942;-13.688;2023-03-13T10:16:55;16;14;
70922;PMS5003;58573;28.942;-13.688;2023-03-13T10:19:21;12;12;
70922;PMS5003;58573;28.942;-13.688;2023-03-13T10:21:46;9;8;
70922;PMS5003;58573;28.942;-13.688;2023-03-13T10:24:13;11;9;
70922;PMS5003;58573;28.942;-13.688;2023-03-13T10:26:36;11;10;
70922;PMS5003;58573;28.942;-13.688;2023-03-13T10:29:10;16;14;
70922;PMS5003;58573;28.942;-13.688;2023-03-13T10:31:29;15;14;
70922;PMS5003;58573;28.942;-13.688;2023-03-13T10:33:54;15;15;
70922;PMS5003;58573;28.942;-13.688;2023-03-13T10:36:18;15;15;
70922;PMS5003;58573;28.942;-13.688;2023-03-13T10:38:46;18;16;
70922;PMS5003;58573;28.942;-13.688;2023-03-13T10:41:17;16;14;
70922;PMS5003;58573;28.942;-13.688;2023-03-13T10:43:35;13;12;
70922;PMS5003;58573;28.942;-13.688;2023-03-13T10:46:00;15;14;
70922;PMS5003;58573;28.942;-13.688;2023-03-13T10:48:26;18;17;
70922;PMS5003;58573;28.942;-13.688;2023-03-13T10:50:51;14;14;
70922;PMS5003;58573;28.942;-13.688;2023-03-13T10:53:22;15;15;
70922;PMS5003;58573;28.942;-13.688;2023-03-13T10:55:42;16;15;
70922;PMS5003;58573;28.942;-13.688;2023-03-13T10:58:12;19;15;
70922;PMS5003;58573;28.942;-13.688;2023-03-13T11:00:34;13;12;
70922;PMS5003;58573;28.942;-13.688;2023-03-13T11:02:59;13;12;
70922;PMS5003;58573;28.942;-13.688;2023-03-13T11:05:28;13;12;
70922;PMS5003;58573;28.942;-13.688;2023-03-13T11:07:50;15;15;
70922;PMS5003;58573;28.942;-13.688;2023-03-13T11:10:16;17;15;
70922;PMS5003;58573;28.942;-13.688;2023-03-13T11:12:43;21;19;
70922;PMS5003;58573;28.942;-13.688;2023-03-13T11:15:11;14;14;
70922;PMS5003;58573;28.942;-13.688;2023-03-13T11:17:33;12;12;
70922;PMS5003;58573;28.942;-13.688;2023-03-13T11:20:00;12;12;
70922;PMS5003;58573;28.942;-13.688;2023-03-13T11:22:29;14;14;
70922;PMS5003;58573;28.942;-13.688;2023-03-13T11:24:50;15;13;
70922;PMS5003;58573;28.942;-13.688;2023-03-13T11:27:16;15;14;
70922;PMS5003;58573;28.942;-13.688;2023-03-13T11:29:41;15;12;
70922;PMS5003;58573;28.942;-13.688;2023-03-13T11:32:09;11;10;
70922;PMS5003;58573;28.942;-13.688;2023-03-13T11:34:31;14;13;
70922;PMS5003;58573;28.942;-13.688;2023-03-13T11:36:57;13;11;
70922;PMS5003;58573;28.942;-13.688;2023-03-13T11:41:50;29;28;
70922;PMS5003;58573;28.942;-13.688;2023-03-13T11:44:16;13;13;
70922;PMS5003;58573;28.942;-13.688;2023-03-13T11:46:40;14;12;
70922;PMS5003;58573;28.942;-13.688;2023-03-13T11:51:30;12;11;
70922;PMS5003;58573;28.942;-13.688;2023-03-13T11:54:00;11;11;
70922;PMS5003;58573;28.942;-13.688;2023-03-13T11:56:20;12;11;
70922;PMS5003;58573;28.942;-13.688;2023-03-13T11:58:51;14;12;
70922;PMS5003;58573;28.942;-13.688;2023-03-13T12:01:10;12;11;
70922;PMS5003;58573;28.942;-13.688;2023-03-13T12:03:36;15;15;
70922;PMS5003;58573;28.942;-13.688;2023-03-13T12:06:00;23;23;
70922;PMS5003;58573;28.942;-13.688;2023-03-13T12:08:27;24;22;
70922;PMS5003;58573;28.942;-13.688;2023-03-13T12:10:55;23;23;
70922;PMS5003;58573;28.942;-13.688;2023-03-13T12:13:18;14;14;
70922;PMS5003;58573;28.942;-13.688;2023-03-13T12:15:44;29;28;
70922;PMS5003;58573;28.942;-13.688;2023-03-13T12:18:11;17;17;
70922;PMS5003;58573;28.942;-13.688;2023-03-13T12:20:37;11;11;
70922;PMS5003;58573;28.942;-13.688;2023-03-13T12:23:03;18;15;
70922;PMS5003;58573;28.942;-13.688;2023-03-13T12:25:26;12;11;
70922;PMS5003;58573;28.942;-13.688;2023-03-13T12:27:51;16;14;
70922;PMS5003;58573;28.942;-13.688;2023-03-13T12:30:19;12;12;
70922;PMS5003;58573;28.942;-13.688;2023-03-13T12:32:42;12;11;
70922;PMS5003;58573;28.942;-13.688;2023-03-13T12:35:08;12;11;
70922;PMS5003;58573;28.942;-13.688;2023-03-13T12:37:35;14;13;
70922;PMS5003;58573;28.942;-13.688;2023-03-13T12:39:59;14;12;
70922;PMS5003;58573;28.942;-13.688;2023-03-13T12:42:35;11;10;
70922;PMS5003;58573;28.942;-13.688;2023-03-13T12:44:49;9;7;
70922;PMS5003;58573;28.942;-13.688;2023-03-13T12:47:15;9;8;
70922;PMS5003;58573;28.942;-13.688;2023-03-13T12:52:11;10;10;
70922;PMS5003;58573;28.942;-13.688;2023-03-13T12:54:34;7;7;
70922;PMS5003;58573;28.942;-13.688;2023-03-13T12:57:02;8;8;
70922;PMS5003;58573;28.942;-13.688;2023-03-13T12:59:21;6;6;
70922;PMS5003;58573;28.942;-13.688;2023-03-13T13:01:46;7;6;
70922;PMS5003;58573;28.942;-13.688;2023-03-13T13:04:11;9;8;
70922;PMS5003;58573;28.942;-13.688;2023-03-13T13:09:05;16;13;
70922;PMS5003;58573;28.942;-13.688;2023-03-13T13:13:53;6;5;
70922;PMS5003;58573;28.942;-13.688;2023-03-13T13:16:19;6;6;
70922;PMS5003;58573;28.942;-13.688;2023-03-13T13:18:44;6;6;
70922;PMS5003;58573;28.942;-13.688;2023-03-13T13:23:34;7;6;
70922;PMS5003;58573;28.942;-13.688;2023-03-13T13:28:31;10;8;
70922;PMS5003;58573;28.942;-13.688;2023-03-13T13:30:51;3;3;
70922;PMS5003;58573;28.942;-13.688;2023-03-13T13:35:41;5;5;
70922;PMS5003;58573;28.942;-13.688;2023-03-13T13:40:31;3;3;
70922;PMS5003;58573;28.942;-13.688;2023-03-13T13:42:56;5;5;
70922;PMS5003;58573;28.942;-13.688;2023-03-13T13:45:23;5;4;
70922;PMS5003;58573;28.942;-13.688;2023-03-13T13:47:47;6;6;
70922;PMS5003;58573;28.942;-13.688;2023-03-13T13:50:15;5;4;
70922;PMS5003;58573;28.942;-13.688;2023-03-13T13:52:38;4;4;
70922;PMS5003;58573;28.942;-13.688;2023-03-13T13:57:29;4;4;
70922;PMS5003;58573;28.942;-13.688;2023-03-13T13:59:53;2;2;
70922;PMS5003;58573;28.942;-13.688;2023-03-13T14:02:20;4;4;
70922;PMS5003;58573;28.942;-13.688;2023-03-13T14:04:46;4;4;
70922;PMS5003;58573;28.942;-13.688;2023-03-13T14:07:10;6;4;
70922;PMS5003;58573;28.942;-13.688;2023-03-13T14:09:38;4;4;
70922;PMS5003;58573;28.942;-13.688;2023-03-13T14:12:00;5;5;
70922;PMS5003;58573;28.942;-13.688;2023-03-13T14:14:25;7;6;
70922;PMS5003;58573;28.942;-13.688;2023-03-13T14:16:51;5;4;
70922;PMS5003;58573;28.942;-13.688;2023-03-13T14:19:20;5;5;
70922;PMS5003;58573;28.942;-13.688;2023-03-13T14:21:42;7;6;
70922;PMS5003;58573;28.942;-13.688;2023-03-13T14:24:11;4;4;
70922;PMS5003;58573;28.942;-13.688;2023-03-13T14:26:32;4;3;
70922;PMS5003;58573;28.942;-13.688;2023-03-13T14:28:58;4;3;
70922;PMS5003;58573;28.942;-13.688;2023-03-13T14:31:23;5;4;
70922;PMS5003;58573;28.942;-13.688;2023-03-13T14:33:48;4;4;
70922;PMS5003;58573;28.942;-13.688;2023-03-13T14:36:13;4;4;
70922;PMS5003;58573;28.942;-13.688;2023-03-13T14:38:38;4;4;
70922;PMS5003;58573;28.942;-13.688;2023-03-13T14:41:03;5;4;
70922;PMS5003;58573;28.942;-13.688;2023-03-13T14:43:30;6;5;
70922;PMS5003;58573;28.942;-13.688;2023-03-13T14:45:54;6;6;
70922;PMS5003;58573;28.942;-13.688;2023-03-13T14:48:20;5;5;
70922;PMS5003;58573;28.942;-13.688;2023-03-13T14:50:44;4;4;
70922;PMS5003;58573;28.942;-13.688;2023-03-13T14:53:10;4;4;
70922;PMS5003;58573;28.942;-13.688;2023-03-13T14:55:35;5;5;
70922;PMS5003;58573;28.942;-13.688;2023-03-13T14:58:01;5;5;
70922;PMS5003;58573;28.942;-13.688;2023-03-13T15:00:29;4;4;
70922;PMS5003;58573;28.942;-13.688;2023-03-13T15:02:51;7;6;
70922;PMS5003;58573;28.942;-13.688;2023-03-13T15:07:44;6;5;
70922;PMS5003;58573;28.942;-13.688;2023-03-13T15:12:32;6;6;
70922;PMS5003;58573;28.942;-13.688;2023-03-13T15:14:57;6;5;
70922;PMS5003;58573;28.942;-13.688;2023-03-13T15:17:23;7;6;
70922;PMS5003;58573;28.942;-13.688;2023-03-13T15:19:48;5;4;
70922;PMS5003;58573;28.942;-13.688;2023-03-13T15:22:14;5;5;
70922;PMS5003;58573;28.942;-13.688;2023-03-13T15:24:39;4;4;
70922;PMS5003;58573;28.942;-13.688;2023-03-13T15:27:08;6;5;
70922;PMS5003;58573;28.942;-13.688;2023-03-13T15:29:30;5;4;
70922;PMS5003;58573;28.942;-13.688;2023-03-13T15:31:55;6;6;
70922;PMS5003;58573;28.942;-13.688;2023-03-13T15:34:21;3;3;
70922;PMS5003;58573;28.942;-13.688;2023-03-13T15:36:47;8;5;
70922;PMS5003;58573;28.942;-13.688;2023-03-13T15:39:12;5;5;
70922;PMS5003;58573;28.942;-13.688;2023-03-13T15:41:37;5;5;
70922;PMS5003;58573;28.942;-13.688;2023-03-13T15:44:02;7;6;
70922;PMS5003;58573;28.942;-13.688;2023-03-13T15:46:27;6;5;
70922;PMS5003;58573;28.942;-13.688;2023-03-13T15:48:53;5;5;
70922;PMS5003;58573;28.942;-13.688;2023-03-13T15:51:18;5;4;
70922;PMS5003;58573;28.942;-13.688;2023-03-13T15:53:43;4;4;
70922;PMS5003;58573;28.942;-13.688;2023-03-13T15:56:11;5;5;
70922;PMS5003;58573;28.942;-13.688;2023-03-13T15:58:34;5;5;
70922;PMS5003;58573;28.942;-13.688;2023-03-13T16:00:59;7;6;
70922;PMS5003;58573;28.942;-13.688;2023-03-13T16:03:25;4;3;
70922;PMS5003;58573;28.942;-13.688;2023-03-13T16:05:50;7;6;
70922;PMS5003;58573;28.942;-13.688;2023-03-13T16:08:16;6;5;
70922;PMS5003;58573;28.942;-13.688;2023-03-13T16:10:40;5;4;
70922;PMS5003;58573;28.942;-13.688;2023-03-13T16:13:05;5;5;
70922;PMS5003;58573;28.942;-13.688;2023-03-13T16:15:30;4;4;